< < Back
Terminal Aerodrome Forecast


Current Version              Previous Versions:   1  2  3  4  5  6  7  8  9  

Terminal Aerodrome Forecast

888
FTUS42 KTAE 242320
TAFABY
TAF
KABY 242320Z 2500/2524 00000KT P6SM BKN200
     FM251000 18007KT P6SM BKN015
     FM251500 21015G25KT P6SM BKN035 BKN150
      TEMPO 2519/2523 4SM TSRA BKN020CB OVC070=



Latest METAR

061
SAUS70 KWBC 250600 RRE
MTRABY
METAR KABY 250553Z AUTO 14008KT 10SM CLR 20/15 A2991 RMK AO2 SLP127
T02000150 10239 20194 58022


USA.gov is the U.S. government's official web portal to all federal, state and local government web resources and services.